Time,TemperatureF,DewpointF,PressureIn,WindDirection,WindDirectionDegrees,WindSpeedMPH,WindSpeedGustMPH,Humidity,HourlyPrecipIn,Conditions,Clouds,dailyrainin,SolarRadiationWatts/m^2,SoftwareType,DateUTC
2014-03-16 00:00:00,39.7,24.4,30.02,WNW,283,4.0,11.0,54,0.00,,,0.00,0.00,VWS V14.01,2014-03-16 04:00:00,
2014-03-16 00:01:00,39.7,24.4,30.02,WNW,283,2.0,4.0,54,0.00,,,0.00,0.00,VWS V14.01,2014-03-16 04:01:00,
2014-03-16 00:06:00,39.2,24.8,30.02,West,279,0.0,9.0,56,0.00,,,0.00,0.00,VWS V14.01,2014-03-16 04:06:00,
2014-03-16 00:11:00,38.9,24.6,30.02,West,277,5.0,9.0,56,0.00,,,0.00,0.00,VWS V14.01,2014-03-16 04:11:00,
2014-03-16 00:15:00,38.4,24.5,30.03,West,274,11.0,11.0,57,0.00,,,0.00,0.00,VWS V14.01,2014-03-16 04:15:00,
2014-03-16 00:16:00,38.4,24.5,30.03,WNW,299,0.0,11.0,57,0.00,,,0.00,0.00,VWS V14.01,2014-03-16 04:16:00,
2014-03-16 00:22:00,38.0,24.1,30.03,WSW,240,0.0,11.0,57,0.00,,,0.00,0.00,VWS V14.01,2014-03-16 04:22:00,
2014-03-16 00:26:00,37.7,24.3,30.03,West,273,5.0,11.0,58,0.00,,,0.00,0.00,VWS V14.01,2014-03-16 04:26:00,
2014-03-16 00:30:00,37.4,24.0,30.04,WSW,250,4.0,11.0,58,0.00,,,0.00,0.00,VWS V14.01,2014-03-16 04:30:00,
2014-03-16 00:31:00,37.4,24.0,30.04,West,271,0.0,4.0,58,0.00,,,0.00,0.00,VWS V14.01,2014-03-16 04:31:00,
2014-03-16 00:36:00,37.3,24.3,30.04,West,271,6.0,8.0,59,0.00,,,0.00,0.00,VWS V14.01,2014-03-16 04:36:00,
2014-03-16 00:41:00,37.0,24.0,30.04,WSW,248,3.0,8.0,59,0.00,,,0.00,0.00,VWS V14.01,2014-03-16 04:41:00,
2014-03-16 00:45:00,36.9,23.9,30.04,WSW,256,6.0,9.0,59,0.00,,,0.00,0.00,VWS V14.01,2014-03-16 04:45:00,
2014-03-16 00:46:00,36.7,23.7,30.04,WSW,256,5.0,6.0,59,0.00,,,0.00,0.00,VWS V14.01,2014-03-16 04:46:00,
2014-03-16 00:51:00,36.7,23.7,30.04,West,271,0.0,7.0,59,0.00,,,0.00,0.00,VWS V14.01,2014-03-16 04:51:00,
2014-03-16 00:56:00,36.6,23.6,30.04,WSW,246,3.0,10.0,59,0.00,,,0.00,0.00,VWS V14.01,2014-03-16 04:56:00,
2014-03-16 01:00:00,36.4,23.5,30.04,WSW,250,4.0,10.0,59,0.00,,,0.00,0.00,VWS V14.01,2014-03-16 05:00:00,
2014-03-16 01:01:00,36.3,23.4,30.04,West,273,2.0,6.0,59,0.00,,,0.00,0.00,VWS V14.01,2014-03-16 05:01:00,
2014-03-16 01:06:00,36.3,23.0,30.04,WSW,257,7.0,10.0,58,0.00,,,0.00,0.00,VWS V14.01,2014-03-16 05:06:00,
2014-03-16 01:11:00,36.3,23.0,30.04,WSW,250,4.0,10.0,58,0.00,,,0.00,0.00,VWS V14.01,2014-03-16 05:11:00,
2014-03-16 01:15:00,36.1,22.8,30.04,WSW,246,6.0,10.0,58,0.00,,,0.00,0.00,VWS V14.01,2014-03-16 05:15:00,
2014-03-16 01:16:00,36.1,22.8,30.04,West,272,2.0,7.0,58,0.00,,,0.00,0.00,VWS V14.01,2014-03-16 05:16:00,
2014-03-16 01:21:00,36.0,22.7,30.04,WSW,250,4.0,7.0,58,0.00,,,0.00,0.00,VWS V14.01,2014-03-16 05:21:00,
2014-03-16 01:26:00,35.9,22.6,30.04,West,267,4.0,7.0,58,0.00,,,0.00,0.00,VWS V14.01,2014-03-16 05:26:00,
2014-03-16 01:30:00,35.7,22.4,30.05,West,271,0.0,7.0,58,0.00,,,0.00,0.00,VWS V14.01,2014-03-16 05:30:00,
2014-03-16 01:32:00,35.7,22.8,30.05,West,271,0.0,0.0,59,0.00,,,0.00,0.00,VWS V14.01,2014-03-16 05:32:00,
2014-03-16 01:37:00,35.6,22.7,30.05,West,271,0.0,4.0,59,0.00,,,0.00,0.00,VWS V14.01,2014-03-16 05:37:00,
2014-03-16 01:42:00,35.4,22.5,30.05,West,271,0.0,4.0,59,0.00,,,0.00,0.00,VWS V14.01,2014-03-16 05:42:00,
2014-03-16 01:45:00,35.4,22.5,30.05,West,271,2.0,4.0,59,0.00,,,0.00,0.00,VWS V14.01,2014-03-16 05:45:00,
2014-03-16 01:47:00,35.3,22.8,30.05,West,272,0.0,3.0,60,0.00,,,0.00,0.00,VWS V14.01,2014-03-16 05:47:00,
2014-03-16 01:52:00,35.1,22.6,30.05,West,263,5.0,9.0,60,0.00,,,0.00,0.00,VWS V14.01,2014-03-16 05:52:00,
2014-03-16 01:57:00,34.8,22.3,30.05,West,266,5.0,11.0,60,0.00,,,0.00,0.00,VWS V14.01,2014-03-16 05:57:00,
2014-03-16 02:00:00,34.8,22.3,30.07,WSW,240,3.0,11.0,60,0.00,,,0.00,0.00,VWS V14.01,2014-03-16 06:00:00,
2014-03-16 02:02:00,34.7,22.2,30.07,WNW,292,8.0,11.0,60,0.00,,,0.00,0.00,VWS V14.01,2014-03-16 06:02:00,
2014-03-16 02:07:00,34.5,21.7,30.07,West,268,6.0,13.0,59,0.00,,,0.00,0.00,VWS V14.01,2014-03-16 06:07:00,
2014-03-16 02:12:00,34.5,21.3,30.07,WSW,241,6.0,13.0,58,0.00,,,0.00,0.00,VWS V14.01,2014-03-16 06:12:00,
2014-03-16 02:15:00,34.5,20.4,30.07,West,269,8.0,15.0,56,0.00,,,0.00,0.00,VWS V14.01,2014-03-16 06:15:00,
2014-03-16 02:18:00,34.4,20.3,30.07,NNW,343,5.0,13.0,56,0.00,,,0.00,0.00,VWS V14.01,2014-03-16 06:18:00,
2014-03-16 02:23:00,34.4,20.3,30.07,WSW,248,9.0,13.0,56,0.00,,,0.00,0.00,VWS V14.01,2014-03-16 06:23:00,
2014-03-16 02:28:00,34.2,20.1,30.07,WSW,248,8.0,13.0,56,0.00,,,0.00,0.00,VWS V14.01,2014-03-16 06:28:00,
2014-03-16 02:30:00,34.2,20.2,30.08,WSW,237,7.0,13.0,56,0.00,,,0.00,0.00,VWS V14.01,2014-03-16 06:30:00,
2014-03-16 02:33:00,34.1,20.5,30.08,SW,230,6.0,8.0,57,0.00,,,0.00,0.00,VWS V14.01,2014-03-16 06:33:00,
2014-03-16 02:38:00,33.9,20.7,30.08,West,273,6.0,10.0,58,0.00,,,0.00,0.00,VWS V14.01,2014-03-16 06:38:00,
2014-03-16 02:43:00,33.8,20.6,30.08,SSW,212,5.0,10.0,58,0.00,,,0.00,0.00,VWS V14.01,2014-03-16 06:43:00,
2014-03-16 02:45:00,33.6,20.4,30.09,WSW,239,5.0,10.0,58,0.00,,,0.00,0.00,VWS V14.01,2014-03-16 06:45:00,
2014-03-16 02:48:00,33.6,20.4,30.09,WSW,239,6.0,9.0,58,0.00,,,0.00,0.00,VWS V14.01,2014-03-16 06:48:00,
2014-03-16 02:53:00,33.3,19.3,30.09,WSW,250,10.0,13.0,56,0.00,,,0.00,0.00,VWS V14.01,2014-03-16 06:53:00,
2014-03-16 02:58:00,33.3,18.5,30.09,NNW,348,6.0,15.0,54,0.00,,,0.00,0.00,VWS V14.01,2014-03-16 06:58:00,
2014-03-16 03:00:00,33.2,17.9,30.09,SW,232,8.0,15.0,53,0.00,,,0.00,0.00,VWS V14.01,2014-03-16 07:00:00,
2014-03-16 03:03:00,33.0,17.3,30.09,WNW,294,6.0,12.0,52,0.00,,,0.00,0.00,VWS V14.01,2014-03-16 07:03:00,
2014-03-16 03:08:00,32.9,16.3,30.09,WNW,286,8.0,14.0,50,0.00,,,0.00,0.00,VWS V14.01,2014-03-16 07:08:00,
2014-03-16 03:13:00,32.6,14.1,30.09,West,266,11.0,20.0,46,0.00,,,0.00,0.00,VWS V14.01,2014-03-16 07:13:00,
2014-03-16 03:15:00,32.5,13.5,30.09,West,279,14.0,20.0,45,0.00,,,0.00,0.00,VWS V14.01,2014-03-16 07:15:00,
2014-03-16 03:18:00,32.3,13.4,30.09,West,260,11.0,15.0,45,0.00,,,0.00,0.00,VWS V14.01,2014-03-16 07:18:00,
2014-03-16 03:23:00,32.0,13.6,30.09,WNW,286,8.0,15.0,46,0.00,,,0.00,0.00,VWS V14.01,2014-03-16 07:23:00,
2014-03-16 03:28:00,31.9,14.0,30.09,WSW,242,6.0,15.0,47,0.00,,,0.00,0.00,VWS V14.01,2014-03-16 07:28:00,
2014-03-16 03:30:00,31.7,14.3,30.09,West,259,5.0,15.0,48,0.00,,,0.00,0.00,VWS V14.01,2014-03-16 07:30:00,
2014-03-16 03:33:00,31.6,14.2,30.09,West,262,0.0,6.0,48,0.00,,,0.00,0.00,VWS V14.01,2014-03-16 07:33:00,
2014-03-16 03:38:00,31.4,14.5,30.09,West,275,0.0,9.0,49,0.00,,,0.00,0.00,VWS V14.01,2014-03-16 07:38:00,
2014-03-16 03:43:00,31.3,14.4,30.09,West,275,2.0,9.0,49,0.00,,,0.00,0.00,VWS V14.01,2014-03-16 07:43:00,
2014-03-16 03:45:00,31.1,14.2,30.09,WSW,246,5.0,9.0,49,0.00,,,0.00,0.00,VWS V14.01,2014-03-16 07:45:00,
2014-03-16 03:48:00,31.0,14.1,30.09,WSW,248,6.0,7.0,49,0.00,,,0.00,0.00,VWS V14.01,2014-03-16 07:48:00,
2014-03-16 03:53:00,30.8,13.4,30.09,West,275,0.0,11.0,48,0.00,,,0.00,0.00,VWS V14.01,2014-03-16 07:53:00,
2014-03-16 03:58:00,30.7,13.4,30.09,NW,311,3.0,11.0,48,0.00,,,0.00,0.00,VWS V14.01,2014-03-16 07:58:00,
2014-03-16 04:00:00,30.7,13.4,30.09,WNW,296,4.0,11.0,48,0.00,,,0.00,0.00,VWS V14.01,2014-03-16 08:00:00,
2014-03-16 04:03:00,30.5,13.2,30.09,West,278,0.0,6.0,48,0.00,,,0.00,0.00,VWS V14.01,2014-03-16 08:03:00,
2014-03-16 04:08:00,30.4,13.1,30.09,NW,308,0.0,8.0,48,0.00,,,0.00,0.00,VWS V14.01,2014-03-16 08:08:00,
2014-03-16 04:13:00,30.2,12.9,30.09,WNW,292,0.0,8.0,48,0.00,,,0.00,0.00,VWS V14.01,2014-03-16 08:13:00,
2014-03-16 04:15:00,30.2,12.9,30.09,WNW,285,0.0,8.0,48,0.00,,,0.00,0.00,VWS V14.01,2014-03-16 08:15:00,
2014-03-16 04:18:00,30.1,13.3,30.09,WNW,282,4.0,5.0,49,0.00,,,0.00,0.00,VWS V14.01,2014-03-16 08:18:00,
2014-03-16 04:24:00,29.9,13.1,30.09,WNW,296,0.0,8.0,49,0.00,,,0.00,0.00,VWS V14.01,2014-03-16 08:24:00,
2014-03-16 04:29:00,29.9,13.1,30.09,NE,44,0.0,8.0,49,0.00,,,0.00,0.00,VWS V14.01,2014-03-16 08:29:00,
2014-03-16 04:30:00,29.8,13.4,30.10,East,97,0.0,8.0,50,0.00,,,0.00,0.00,VWS V14.01,2014-03-16 08:30:00,
2014-03-16 04:34:00,29.8,13.4,30.10,WSW,244,8.0,8.0,50,0.00,,,0.00,0.00,VWS V14.01,2014-03-16 08:34:00,
2014-03-16 04:39:00,29.6,13.3,30.10,NW,317,0.0,10.0,50,0.00,,,0.00,0.00,VWS V14.01,2014-03-16 08:39:00,
2014-03-16 04:44:00,29.5,13.6,30.10,West,273,0.0,10.0,51,0.00,,,0.00,0.00,VWS V14.01,2014-03-16 08:44:00,
2014-03-16 04:45:00,29.5,13.6,30.10,West,272,0.0,10.0,51,0.00,,,0.00,0.00,VWS V14.01,2014-03-16 08:45:00,
2014-03-16 04:49:00,29.4,14.0,30.10,West,272,0.0,3.0,52,0.00,,,0.00,0.00,VWS V14.01,2014-03-16 08:49:00,
2014-03-16 04:55:00,29.4,14.0,30.10,West,264,0.0,7.0,52,0.00,,,0.00,0.00,VWS V14.01,2014-03-16 08:55:00,
2014-03-16 05:00:00,29.2,14.2,30.10,West,271,0.0,7.0,53,0.00,,,0.00,0.00,VWS V14.01,2014-03-16 09:00:00,
2014-03-16 05:05:00,29.1,14.1,30.10,West,270,0.0,4.0,53,0.00,,,0.00,0.00,VWS V14.01,2014-03-16 09:05:00,
2014-03-16 05:10:00,28.9,13.9,30.10,WSW,248,0.0,4.0,53,0.00,,,0.00,0.00,VWS V14.01,2014-03-16 09:10:00,
2014-03-16 05:15:00,28.8,14.3,30.11,West,270,0.0,5.0,54,0.00,,,0.00,0.00,VWS V14.01,2014-03-16 09:15:00,
2014-03-16 05:20:00,28.6,14.1,30.11,WSW,244,0.0,6.0,54,0.00,,,0.00,0.00,VWS V14.01,2014-03-16 09:20:00,
2014-03-16 05:25:00,28.6,14.5,30.11,West,281,0.0,6.0,55,0.00,,,0.00,0.00,VWS V14.01,2014-03-16 09:25:00,
2014-03-16 05:30:00,28.5,14.4,30.11,West,277,0.0,6.0,55,0.00,,,0.00,0.00,VWS V14.01,2014-03-16 09:30:00,
2014-03-16 05:35:00,28.3,14.6,30.11,West,277,5.0,6.0,56,0.00,,,0.00,0.00,VWS V14.01,2014-03-16 09:35:00,
2014-03-16 05:40:00,28.3,14.6,30.11,West,266,0.0,7.0,56,0.00,,,0.00,0.00,VWS V14.01,2014-03-16 09:40:00,
2014-03-16 05:45:00,28.2,14.5,30.11,West,267,0.0,7.0,56,0.00,,,0.00,0.00,VWS V14.01,2014-03-16 09:45:00,
2014-03-16 05:50:00,28.0,14.8,30.11,West,267,0.0,0.0,57,0.00,,,0.00,0.00,VWS V14.01,2014-03-16 09:50:00,
2014-03-16 05:55:00,28.0,14.8,30.11,West,275,0.0,6.0,57,0.00,,,0.00,0.00,VWS V14.01,2014-03-16 09:55:00,
2014-03-16 06:00:00,27.9,14.6,30.11,West,281,0.0,7.0,57,0.00,,,0.00,0.00,VWS V14.01,2014-03-16 10:00:00,
2014-03-16 06:04:00,27.9,15.1,30.11,West,265,0.0,8.0,58,0.00,,,0.00,0.00,VWS V14.01,2014-03-16 10:04:00,
2014-03-16 06:09:00,27.7,14.9,30.11,WSW,244,5.0,8.0,58,0.00,,,0.00,0.00,VWS V14.01,2014-03-16 10:09:00,
2014-03-16 06:14:00,27.7,14.9,30.12,West,259,0.0,8.0,58,0.00,,,0.00,0.00,VWS V14.01,2014-03-16 10:14:00,
2014-03-16 06:15:00,27.7,14.9,30.12,WSW,247,1.0,8.0,58,0.00,,,0.00,0.00,VWS V14.01,2014-03-16 10:15:00,
2014-03-16 06:19:00,27.7,15.3,30.12,West,274,10.0,10.0,59,0.00,,,0.00,0.00,VWS V14.01,2014-03-16 10:19:00,
2014-03-16 06:25:00,27.6,15.2,30.12,West,271,0.0,10.0,59,0.00,,,0.00,0.00,VWS V14.01,2014-03-16 10:25:00,
2014-03-16 06:30:00,27.4,15.0,30.13,SW,234,0.0,10.0,59,0.00,,,0.00,0.00,VWS V14.01,2014-03-16 10:30:00,
2014-03-16 06:35:00,27.3,14.9,30.13,SSW,206,0.0,6.0,59,0.00,,,0.00,0.00,VWS V14.01,2014-03-16 10:35:00,
2014-03-16 06:40:00,27.3,14.9,30.13,WNW,285,3.0,6.0,59,0.00,,,0.00,0.00,VWS V14.01,2014-03-16 10:40:00,
2014-03-16 06:45:00,27.1,14.7,30.13,SSW,213,0.0,6.0,59,0.00,,,0.00,0.00,VWS V14.01,2014-03-16 10:45:00,
2014-03-16 06:50:00,27.0,14.6,30.13,West,263,0.0,8.0,59,0.00,,,0.00,0.00,VWS V14.01,2014-03-16 10:50:00,
2014-03-16 06:55:00,27.0,14.6,30.13,SW,220,0.0,8.0,59,0.00,,,0.00,0.00,VWS V14.01,2014-03-16 10:55:00,
2014-03-16 06:59:00,26.8,14.4,30.14,WNW,286,7.0,8.0,59,0.00,,,0.00,0.00,VWS V14.01,2014-03-16 10:59:00,
2014-03-16 07:00:00,26.8,14.4,30.14,WNW,303,3.0,8.0,59,0.00,,,0.00,0.00,VWS V14.01,2014-03-16 11:00:00,
2014-03-16 07:04:00,26.8,14.0,30.14,West,277,0.0,7.0,58,0.00,,,0.00,0.00,VWS V14.01,2014-03-16 11:04:00,
2014-03-16 07:09:00,26.7,13.9,30.14,West,279,0.0,7.0,58,0.00,,,0.00,0.00,VWS V14.01,2014-03-16 11:09:00,
2014-03-16 07:14:00,26.7,13.9,30.15,WSW,256,0.0,7.0,58,0.00,,,0.00,7.00,VWS V14.01,2014-03-16 11:14:00,
2014-03-16 07:15:00,26.7,13.9,30.15,SW,223,0.0,7.0,58,0.00,,,0.00,7.00,VWS V14.01,2014-03-16 11:15:00,
2014-03-16 07:19:00,26.5,13.3,30.15,WSW,241,2.0,6.0,57,0.00,,,0.00,11.00,VWS V14.01,2014-03-16 11:19:00,
2014-03-16 07:24:00,26.5,13.3,30.15,West,281,2.0,12.0,57,0.00,,,0.00,14.00,VWS V14.01,2014-03-16 11:24:00,
2014-03-16 07:29:00,26.5,12.9,30.17,West,265,8.0,12.0,56,0.00,,,0.00,18.00,VWS V14.01,2014-03-16 11:29:00,
2014-03-16 07:30:00,26.5,12.9,30.17,SW,234,7.0,12.0,56,0.00,,,0.00,19.00,VWS V14.01,2014-03-16 11:30:00,
2014-03-16 07:34:00,26.5,12.9,30.17,West,265,0.0,7.0,56,0.00,,,0.00,21.00,VWS V14.01,2014-03-16 11:34:00,
2014-03-16 07:39:00,26.4,12.8,30.17,SW,229,5.0,7.0,56,0.00,,,0.00,25.00,VWS V14.01,2014-03-16 11:39:00,
2014-03-16 07:44:00,26.4,12.8,30.18,SW,219,0.0,7.0,56,0.00,,,0.00,26.00,VWS V14.01,2014-03-16 11:44:00,
2014-03-16 07:45:00,26.4,12.8,30.18,SW,219,0.0,7.0,56,0.00,,,0.00,26.00,VWS V14.01,2014-03-16 11:45:00,
2014-03-16 07:49:00,26.4,12.8,30.18,SW,221,0.0,6.0,56,0.00,,,0.00,32.00,VWS V14.01,2014-03-16 11:49:00,
2014-03-16 07:54:00,26.4,12.8,30.18,SW,221,0.0,6.0,56,0.00,,,0.00,46.00,VWS V14.01,2014-03-16 11:54:00,
2014-03-16 07:59:00,26.4,12.4,30.18,NNE,22,0.0,10.0,55,0.00,,,0.00,60.00,VWS V14.01,2014-03-16 11:59:00,
2014-03-16 08:00:00,26.4,12.4,30.18,SW,231,0.0,10.0,55,0.00,,,0.00,70.00,VWS V14.01,2014-03-16 12:00:00,
2014-03-16 08:04:00,26.7,12.7,30.18,SW,228,0.0,3.0,55,0.00,,,0.00,130.00,VWS V14.01,2014-03-16 12:04:00,
2014-03-16 08:09:00,26.8,12.4,30.18,SW,222,0.0,3.0,54,0.00,,,0.00,169.00,VWS V14.01,2014-03-16 12:09:00,
2014-03-16 08:14:00,27.1,13.1,30.19,SW,222,0.0,3.0,55,0.00,,,0.00,113.00,VWS V14.01,2014-03-16 12:14:00,
2014-03-16 08:15:00,27.1,12.7,30.19,West,262,4.0,8.0,54,0.00,,,0.00,128.00,VWS V14.01,2014-03-16 12:15:00,
2014-03-16 08:19:00,26.8,12.0,30.19,West,272,8.0,12.0,53,0.00,,,0.00,144.00,VWS V14.01,2014-03-16 12:19:00,
2014-03-16 08:24:00,26.8,12.0,30.19,North,355,8.0,12.0,53,0.00,,,0.00,172.00,VWS V14.01,2014-03-16 12:24:00,
2014-03-16 08:29:00,26.7,11.4,30.19,SE,133,0.0,12.0,52,0.00,,,0.00,193.00,VWS V14.01,2014-03-16 12:29:00,
2014-03-16 08:30:00,26.7,11.0,30.19,North,355,0.0,12.0,51,0.00,,,0.00,178.00,VWS V14.01,2014-03-16 12:30:00,
2014-03-16 08:34:00,26.7,11.0,30.19,NE,46,0.0,9.0,51,0.00,,,0.00,214.00,VWS V14.01,2014-03-16 12:34:00,
2014-03-16 08:39:00,26.8,11.1,30.19,NE,49,0.0,12.0,51,0.00,,,0.00,248.00,VWS V14.01,2014-03-16 12:39:00,
2014-03-16 08:44:00,26.8,10.7,30.19,West,279,0.0,14.0,50,0.00,,,0.00,255.00,VWS V14.01,2014-03-16 12:44:00,
2014-03-16 08:45:00,26.8,11.1,30.19,West,272,0.0,14.0,51,0.00,,,0.00,265.00,VWS V14.01,2014-03-16 12:45:00,
2014-03-16 08:49:00,27.0,11.3,30.19,ESE,107,3.0,18.0,51,0.00,,,0.00,279.00,VWS V14.01,2014-03-16 12:49:00,
2014-03-16 08:54:00,27.1,10.9,30.19,East,83,0.0,18.0,50,0.00,,,0.00,302.00,VWS V14.01,2014-03-16 12:54:00,
2014-03-16 08:59:00,27.4,11.7,30.19,East,98,1.0,18.0,51,0.00,,,0.00,309.00,VWS V14.01,2014-03-16 12:59:00,
2014-03-16 09:00:00,27.6,11.4,30.19,East,96,0.0,18.0,50,0.00,,,0.00,309.00,VWS V14.01,2014-03-16 13:00:00,
2014-03-16 09:04:00,27.6,11.9,30.19,ENE,73,5.0,6.0,51,0.00,,,0.00,283.00,VWS V14.01,2014-03-16 13:04:00,
2014-03-16 09:09:00,27.6,10.9,30.19,NNE,17,9.0,11.0,49,0.00,,,0.00,346.00,VWS V14.01,2014-03-16 13:09:00,
2014-03-16 09:14:00,27.6,11.4,30.19,ENE,71,6.0,12.0,50,0.00,,,0.00,345.00,VWS V14.01,2014-03-16 13:14:00,
2014-03-16 09:15:00,27.7,11.5,30.19,NNE,19,1.0,12.0,50,0.00,,,0.00,338.00,VWS V14.01,2014-03-16 13:15:00,
2014-03-16 09:19:00,27.7,11.9,30.19,ENE,78,6.0,16.0,51,0.00,,,0.00,373.00,VWS V14.01,2014-03-16 13:19:00,
2014-03-16 09:24:00,27.4,11.2,30.19,ENE,63,7.0,16.0,50,0.00,,,0.00,404.00,VWS V14.01,2014-03-16 13:24:00,
2014-03-16 09:29:00,27.4,12.1,30.19,NNE,22,5.0,16.0,52,0.00,,,0.00,415.00,VWS V14.01,2014-03-16 13:29:00,
2014-03-16 09:30:00,27.4,11.7,30.19,NE,42,0.0,16.0,51,0.00,,,0.00,418.00,VWS V14.01,2014-03-16 13:30:00,
2014-03-16 09:34:00,27.3,11.6,30.19,NNE,20,0.0,11.0,51,0.00,,,0.00,420.00,VWS V14.01,2014-03-16 13:34:00,
2014-03-16 09:39:00,27.7,12.4,30.19,South,190,5.0,12.0,52,0.00,,,0.00,439.00,VWS V14.01,2014-03-16 13:39:00,
2014-03-16 09:44:00,28.0,11.8,30.19,ENE,59,0.0,12.0,50,0.00,,,0.00,455.00,VWS V14.01,2014-03-16 13:44:00,
2014-03-16 09:45:00,27.9,11.7,30.20,West,269,6.0,12.0,50,0.00,,,0.00,455.00,VWS V14.01,2014-03-16 13:45:00,
2014-03-16 09:49:00,28.0,11.3,30.20,ESE,115,9.0,16.0,49,0.00,,,0.00,468.00,VWS V14.01,2014-03-16 13:49:00,
2014-03-16 09:54:00,28.0,11.3,30.20,ENE,58,5.0,16.0,49,0.00,,,0.00,464.00,VWS V14.01,2014-03-16 13:54:00,
2014-03-16 09:59:00,27.9,11.2,30.20,NE,55,7.0,19.0,49,0.00,,,0.00,496.00,VWS V14.01,2014-03-16 13:59:00,
2014-03-16 10:00:00,27.9,11.2,30.20,East,82,4.0,19.0,49,0.00,,,0.00,475.00,VWS V14.01,2014-03-16 14:00:00,
2014-03-16 10:04:00,27.7,10.6,30.20,NE,43,6.0,12.0,48,0.00,,,0.00,457.00,VWS V14.01,2014-03-16 14:04:00,
2014-03-16 10:09:00,28.0,9.4,30.20,NE,41,0.0,14.0,45,0.00,,,0.00,522.00,VWS V14.01,2014-03-16 14:09:00,
2014-03-16 10:14:00,27.7,9.1,30.20,WNW,290,2.0,18.0,45,0.00,,,0.00,536.00,VWS V14.01,2014-03-16 14:14:00,
2014-03-16 10:15:00,27.9,9.3,30.22,NNW,338,0.0,18.0,45,0.00,,,0.00,503.00,VWS V14.01,2014-03-16 14:15:00,
2014-03-16 10:19:00,27.9,9.3,30.22,WNW,284,0.0,11.0,45,0.00,,,0.00,548.00,VWS V14.01,2014-03-16 14:19:00,
2014-03-16 10:24:00,27.9,8.8,30.22,West,272,8.0,14.0,44,0.00,,,0.00,555.00,VWS V14.01,2014-03-16 14:24:00,
2014-03-16 10:29:00,28.5,9.4,30.22,NW,313,0.0,14.0,44,0.00,,,0.00,577.00,VWS V14.01,2014-03-16 14:29:00,
2014-03-16 10:30:00,28.6,9.5,30.22,West,266,2.0,14.0,44,0.00,,,0.00,578.00,VWS V14.01,2014-03-16 14:30:00,
2014-03-16 10:34:00,29.1,9.4,30.22,NNE,32,10.0,10.0,43,0.00,,,0.00,591.00,VWS V14.01,2014-03-16 14:34:00,
2014-03-16 10:39:00,28.5,9.9,30.22,NNE,16,0.0,18.0,45,0.00,,,0.00,598.00,VWS V14.01,2014-03-16 14:39:00,
2014-03-16 10:44:00,28.6,8.9,30.22,NE,42,4.0,18.0,43,0.00,,,0.00,613.00,VWS V14.01,2014-03-16 14:44:00,
2014-03-16 10:45:00,28.5,8.3,30.20,NE,45,7.0,18.0,42,0.00,,,0.00,617.00,VWS V14.01,2014-03-16 14:45:00,
2014-03-16 10:49:00,28.9,9.2,30.20,NNW,331,8.0,13.0,43,0.00,,,0.00,626.00,VWS V14.01,2014-03-16 14:49:00,
2014-03-16 10:54:00,29.4,9.2,30.20,West,275,0.0,13.0,42,0.00,,,0.00,633.00,VWS V14.01,2014-03-16 14:54:00,
2014-03-16 10:59:00,29.6,9.3,30.20,NE,38,7.0,19.0,42,0.00,,,0.00,645.00,VWS V14.01,2014-03-16 14:59:00,
2014-03-16 11:00:00,29.4,8.6,30.21,North,5,3.0,19.0,41,0.00,,,0.00,647.00,VWS V14.01,2014-03-16 15:00:00,
2014-03-16 11:04:00,29.5,9.8,30.21,West,268,11.0,14.0,43,0.00,,,0.00,654.00,VWS V14.01,2014-03-16 15:04:00,
2014-03-16 11:09:00,29.8,9.0,30.21,North,355,0.0,14.0,41,0.00,,,0.00,663.00,VWS V14.01,2014-03-16 15:09:00,
2014-03-16 11:14:00,29.9,8.5,30.21,NE,41,0.0,14.0,40,0.00,,,0.00,680.00,VWS V14.01,2014-03-16 15:14:00,
2014-03-16 11:15:00,30.2,9.9,30.20,South,180,5.0,14.0,42,0.00,,,0.00,682.00,VWS V14.01,2014-03-16 15:15:00,
2014-03-16 11:19:00,30.7,10.9,30.20,NNE,15,5.0,12.0,43,0.00,,,0.00,691.00,VWS V14.01,2014-03-16 15:19:00,
2014-03-16 11:24:00,29.9,9.1,30.20,East,85,6.0,15.0,41,0.00,,,0.00,698.00,VWS V14.01,2014-03-16 15:24:00,
2014-03-16 11:29:00,29.9,8.0,30.20,NW,317,0.0,15.0,39,0.00,,,0.00,710.00,VWS V14.01,2014-03-16 15:29:00,
2014-03-16 11:30:00,30.2,8.8,30.19,NE,49,7.0,15.0,40,0.00,,,0.00,708.00,VWS V14.01,2014-03-16 15:30:00,
2014-03-16 11:34:00,29.8,9.0,30.19,NE,52,5.0,13.0,41,0.00,,,0.00,715.00,VWS V14.01,2014-03-16 15:34:00,
2014-03-16 11:39:00,29.9,9.6,30.19,NNE,24,2.0,13.0,42,0.00,,,0.00,726.00,VWS V14.01,2014-03-16 15:39:00,
2014-03-16 11:44:00,30.8,10.4,30.19,NNW,336,2.0,13.0,42,0.00,,,0.00,731.00,VWS V14.01,2014-03-16 15:44:00,
2014-03-16 11:45:00,31.0,10.1,30.20,NE,39,8.0,13.0,41,0.00,,,0.00,735.00,VWS V14.01,2014-03-16 15:45:00,
2014-03-16 11:49:00,31.0,10.6,30.20,ENE,76,6.0,9.0,42,0.00,,,0.00,742.00,VWS V14.01,2014-03-16 15:49:00,
2014-03-16 11:54:00,31.3,9.8,30.20,NW,319,0.0,11.0,40,0.00,,,0.00,747.00,VWS V14.01,2014-03-16 15:54:00,
2014-03-16 11:59:00,30.8,9.3,30.20,North,5,5.0,11.0,40,0.00,,,0.00,756.00,VWS V14.01,2014-03-16 15:59:00,
2014-03-16 12:00:00,31.4,9.9,30.21,NNE,26,0.0,11.0,40,0.00,,,0.00,756.00,VWS V14.01,2014-03-16 16:00:00,
2014-03-16 12:04:00,31.1,10.7,30.21,NE,40,0.0,11.0,42,0.00,,,0.00,759.00,VWS V14.01,2014-03-16 16:04:00,
2014-03-16 12:09:00,31.9,9.8,30.21,West,259,6.0,11.0,39,0.00,,,0.00,766.00,VWS V14.01,2014-03-16 16:09:00,
2014-03-16 12:14:00,32.0,9.9,30.21,WSW,247,7.0,11.0,39,0.00,,,0.00,782.00,VWS V14.01,2014-03-16 16:14:00,
2014-03-16 12:15:00,31.9,9.8,30.20,WSW,248,0.0,11.0,39,0.00,,,0.00,789.00,VWS V14.01,2014-03-16 16:15:00,
2014-03-16 12:19:00,32.3,10.1,30.20,West,269,0.0,14.0,39,0.00,,,0.00,835.00,VWS V14.01,2014-03-16 16:19:00,
2014-03-16 12:24:00,31.4,8.7,30.20,NE,56,6.0,14.0,38,0.00,,,0.00,814.00,VWS V14.01,2014-03-16 16:24:00,
2014-03-16 12:29:00,31.6,11.7,30.20,WNW,284,8.0,14.0,43,0.00,,,0.00,798.00,VWS V14.01,2014-03-16 16:29:00,
2014-03-16 12:30:00,31.7,10.7,30.20,WNW,283,2.0,14.0,41,0.00,,,0.00,795.00,VWS V14.01,2014-03-16 16:30:00,
2014-03-16 12:34:00,32.2,11.7,30.20,NE,55,9.0,16.0,42,0.00,,,0.00,849.00,VWS V14.01,2014-03-16 16:34:00,
2014-03-16 12:39:00,32.3,11.2,30.20,NNE,17,8.0,16.0,41,0.00,,,0.00,795.00,VWS V14.01,2014-03-16 16:39:00,
2014-03-16 12:44:00,32.2,10.6,30.20,West,277,6.0,16.0,40,0.00,,,0.00,821.00,VWS V14.01,2014-03-16 16:44:00,
2014-03-16 12:45:00,32.2,10.0,30.19,NNE,23,1.0,16.0,39,0.00,,,0.00,837.00,VWS V14.01,2014-03-16 16:45:00,
2014-03-16 12:49:00,31.9,11.4,30.19,NE,53,14.0,14.0,42,0.00,,,0.00,861.00,VWS V14.01,2014-03-16 16:49:00,
2014-03-16 12:54:00,31.9,9.2,30.19,NE,49,7.0,15.0,38,0.00,,,0.00,826.00,VWS V14.01,2014-03-16 16:54:00,
2014-03-16 12:59:00,32.2,8.3,30.19,NNW,340,0.0,15.0,36,0.00,,,0.00,478.00,VWS V14.01,2014-03-16 16:59:00,
2014-03-16 13:00:00,32.5,8.5,30.20,West,269,5.0,15.0,36,0.00,,,0.00,408.00,VWS V14.01,2014-03-16 17:00:00,
2014-03-16 13:04:00,32.0,8.7,30.20,SSW,209,9.0,11.0,37,0.00,,,0.00,649.00,VWS V14.01,2014-03-16 17:04:00,
2014-03-16 13:09:00,31.7,9.0,30.20,WSW,240,5.0,11.0,38,0.00,,,0.00,452.00,VWS V14.01,2014-03-16 17:09:00,
2014-03-16 13:14:00,31.4,10.4,30.20,ENE,58,7.0,11.0,41,0.00,,,0.00,420.00,VWS V14.01,2014-03-16 17:14:00,
2014-03-16 13:15:00,31.7,10.7,30.21,NNW,336,0.0,11.0,41,0.00,,,0.00,420.00,VWS V14.01,2014-03-16 17:15:00,
2014-03-16 13:19:00,33.0,11.9,30.21,WNW,296,1.0,6.0,41,0.00,,,0.00,740.00,VWS V14.01,2014-03-16 17:19:00,
2014-03-16 13:24:00,33.0,10.8,30.21,ENE,60,1.0,10.0,39,0.00,,,0.00,765.00,VWS V14.01,2014-03-16 17:24:00,
2014-03-16 13:29:00,32.8,11.7,30.21,NE,34,4.0,10.0,41,0.00,,,0.00,357.00,VWS V14.01,2014-03-16 17:29:00,
2014-03-16 13:30:00,32.9,10.7,30.21,SSW,199,0.0,10.0,39,0.00,,,0.00,378.00,VWS V14.01,2014-03-16 17:30:00,
2014-03-16 13:33:00,32.5,9.7,30.21,NW,306,7.0,13.0,38,0.00,,,0.00,455.00,VWS V14.01,2014-03-16 17:33:00,
2014-03-16 13:38:00,32.2,8.9,30.21,West,260,6.0,13.0,37,0.00,,,0.00,501.00,VWS V14.01,2014-03-16 17:38:00,
2014-03-16 13:43:00,32.6,9.2,30.21,West,265,6.0,21.0,37,0.00,,,0.00,552.00,VWS V14.01,2014-03-16 17:43:00,
2014-03-16 13:45:00,32.5,9.1,30.20,North,360,7.0,21.0,37,0.00,,,0.00,631.00,VWS V14.01,2014-03-16 17:45:00,
2014-03-16 13:48:00,32.6,9.8,30.20,West,273,6.0,8.0,38,0.00,,,0.00,476.00,VWS V14.01,2014-03-16 17:48:00,
2014-03-16 13:53:00,32.6,9.8,30.20,WNW,294,12.0,12.0,38,0.00,,,0.00,548.00,VWS V14.01,2014-03-16 17:53:00,
2014-03-16 13:58:00,32.0,8.1,30.20,ENE,57,11.0,13.0,36,0.00,,,0.00,519.00,VWS V14.01,2014-03-16 17:58:00,
2014-03-16 14:00:00,31.7,9.0,30.21,ENE,57,6.0,13.0,38,0.00,,,0.00,510.00,VWS V14.01,2014-03-16 18:00:00,
2014-03-16 14:03:00,32.8,9.4,30.21,ENE,57,0.0,6.0,37,0.00,,,0.00,455.00,VWS V14.01,2014-03-16 18:03:00,
2014-03-16 14:08:00,32.2,8.9,30.21,SW,234,5.0,14.0,37,0.00,,,0.00,427.00,VWS V14.01,2014-03-16 18:08:00,
2014-03-16 14:13:00,32.6,9.2,30.21,West,278,6.0,14.0,37,0.00,,,0.00,396.00,VWS V14.01,2014-03-16 18:13:00,
2014-03-16 14:15:00,32.6,9.2,30.20,West,271,5.0,15.0,37,0.00,,,0.00,388.00,VWS V14.01,2014-03-16 18:15:00,
2014-03-16 14:18:00,32.3,9.6,30.20,West,266,6.0,13.0,38,0.00,,,0.00,390.00,VWS V14.01,2014-03-16 18:18:00,
2014-03-16 14:23:00,31.7,9.0,30.20,WSW,250,6.0,13.0,38,0.00,,,0.00,346.00,VWS V14.01,2014-03-16 18:23:00,
2014-03-16 14:28:00,32.0,8.7,30.20,NE,35,0.0,13.0,37,0.00,,,0.00,299.00,VWS V14.01,2014-03-16 18:28:00,
2014-03-16 14:30:00,32.2,9.5,30.19,North,9,4.0,13.0,38,0.00,,,0.00,294.00,VWS V14.01,2014-03-16 18:30:00,
2014-03-16 14:33:00,32.8,10.6,30.19,ENE,59,5.0,10.0,39,0.00,,,0.00,264.00,VWS V14.01,2014-03-16 18:33:00,
2014-03-16 14:38:00,32.9,9.5,30.19,South,173,4.0,12.0,37,0.00,,,0.00,229.00,VWS V14.01,2014-03-16 18:38:00,
2014-03-16 14:43:00,32.5,7.9,30.19,West,278,4.0,12.0,35,0.00,,,0.00,279.00,VWS V14.01,2014-03-16 18:43:00,
2014-03-16 14:45:00,32.2,8.9,30.19,WSW,248,0.0,12.0,37,0.00,,,0.00,330.00,VWS V14.01,2014-03-16 18:45:00,
2014-03-16 14:48:00,32.2,9.5,30.19,ENE,58,7.0,8.0,38,0.00,,,0.00,323.00,VWS V14.01,2014-03-16 18:48:00,
2014-03-16 14:53:00,31.9,7.4,30.19,NNE,17,5.0,12.0,35,0.00,,,0.00,311.00,VWS V14.01,2014-03-16 18:53:00,
2014-03-16 14:58:00,32.2,9.5,30.19,NNW,340,5.0,12.0,38,0.00,,,0.00,325.00,VWS V14.01,2014-03-16 18:58:00,
2014-03-16 15:00:00,32.6,9.2,30.19,NNW,329,0.0,12.0,37,0.00,,,0.00,332.00,VWS V14.01,2014-03-16 19:00:00,
2014-03-16 15:03:00,32.5,7.9,30.19,ENE,59,6.0,6.0,35,0.00,,,0.00,341.00,VWS V14.01,2014-03-16 19:03:00,
2014-03-16 15:08:00,32.5,8.5,30.19,WSW,237,9.0,9.0,36,0.00,,,0.00,329.00,VWS V14.01,2014-03-16 19:08:00,
2014-03-16 15:13:00,32.2,8.3,30.19,West,278,0.0,14.0,36,0.00,,,0.00,299.00,VWS V14.01,2014-03-16 19:13:00,
2014-03-16 15:15:00,32.2,8.9,30.18,West,264,5.0,14.0,37,0.00,,,0.00,294.00,VWS V14.01,2014-03-16 19:15:00,
2014-03-16 15:20:00,32.8,8.8,30.18,WNW,284,6.0,11.0,36,0.00,,,0.00,267.00,VWS V14.01,2014-03-16 19:20:00,
2014-03-16 15:25:00,32.2,8.9,30.18,West,259,0.0,13.0,37,0.00,,,0.00,269.00,VWS V14.01,2014-03-16 19:25:00,
2014-03-16 15:30:00,32.3,7.7,30.18,NNE,33,9.0,15.0,35,0.00,,,0.00,279.00,VWS V14.01,2014-03-16 19:30:00,
2014-03-16 15:35:00,32.0,7.5,30.18,North,5,4.0,10.0,35,0.00,,,0.00,271.00,VWS V14.01,2014-03-16 19:35:00,
2014-03-16 15:40:00,32.2,8.3,30.18,WNW,285,4.0,12.0,36,0.00,,,0.00,267.00,VWS V14.01,2014-03-16 19:40:00,
2014-03-16 15:45:00,32.5,8.5,30.18,ENE,74,0.0,12.0,36,0.00,,,0.00,262.00,VWS V14.01,2014-03-16 19:45:00,
2014-03-16 15:50:00,31.9,7.4,30.18,WNW,284,0.0,12.0,35,0.00,,,0.00,248.00,VWS V14.01,2014-03-16 19:50:00,
2014-03-16 15:55:00,32.5,8.5,30.18,NE,44,6.0,12.0,36,0.00,,,0.00,230.00,VWS V14.01,2014-03-16 19:55:00,
2014-03-16 16:00:00,32.3,9.0,30.18,NNE,33,3.0,12.0,37,0.00,,,0.00,223.00,VWS V14.01,2014-03-16 20:00:00,
2014-03-16 16:05:00,32.3,8.4,30.18,NW,316,5.0,6.0,36,0.00,,,0.00,214.00,VWS V14.01,2014-03-16 20:05:00,
2014-03-16 16:10:00,32.0,8.1,30.18,WNW,290,2.0,6.0,36,0.00,,,0.00,209.00,VWS V14.01,2014-03-16 20:10:00,
2014-03-16 16:15:00,32.0,8.1,30.18,West,275,0.0,10.0,36,0.00,,,0.00,214.00,VWS V14.01,2014-03-16 20:15:00,
2014-03-16 16:20:00,32.2,8.9,30.18,WNW,288,4.0,11.0,37,0.00,,,0.00,218.00,VWS V14.01,2014-03-16 20:20:00,
2014-03-16 16:25:00,32.2,8.9,30.18,North,355,0.0,11.0,37,0.00,,,0.00,218.00,VWS V14.01,2014-03-16 20:25:00,
2014-03-16 16:30:00,32.3,9.0,30.20,West,262,1.0,11.0,37,0.00,,,0.00,206.00,VWS V14.01,2014-03-16 20:30:00,
2014-03-16 16:35:00,31.9,8.6,30.20,NW,308,3.0,8.0,37,0.00,,,0.00,165.00,VWS V14.01,2014-03-16 20:35:00,
2014-03-16 16:40:00,31.6,8.3,30.20,West,276,7.0,11.0,37,0.00,,,0.00,146.00,VWS V14.01,2014-03-16 20:40:00,
2014-03-16 16:45:00,31.6,8.3,30.21,West,261,2.0,11.0,37,0.00,,,0.00,123.00,VWS V14.01,2014-03-16 20:45:00,
2014-03-16 16:50:00,31.6,8.3,30.21,NW,316,0.0,8.0,37,0.00,,,0.00,116.00,VWS V14.01,2014-03-16 20:50:00,
2014-03-16 16:55:00,31.6,8.3,30.21,West,275,9.0,9.0,37,0.00,,,0.00,118.00,VWS V14.01,2014-03-16 20:55:00,
2014-03-16 17:00:00,31.4,7.6,30.20,NNW,346,1.0,9.0,36,0.00,,,0.00,116.00,VWS V14.01,2014-03-16 21:00:00,
2014-03-16 17:05:00,31.3,8.1,30.20,WNW,283,3.0,9.0,37,0.00,,,0.00,100.00,VWS V14.01,2014-03-16 21:05:00,
2014-03-16 17:10:00,31.3,8.6,30.20,WNW,286,1.0,9.0,38,0.00,,,0.00,84.00,VWS V14.01,2014-03-16 21:10:00,
2014-03-16 17:15:00,31.3,8.6,30.20,WSW,242,5.0,9.0,38,0.00,,,0.00,76.00,VWS V14.01,2014-03-16 21:15:00,
2014-03-16 17:20:00,31.1,8.5,30.20,WSW,250,1.0,7.0,38,0.00,,,0.00,76.00,VWS V14.01,2014-03-16 21:20:00,
2014-03-16 17:25:00,31.1,8.5,30.20,SW,234,2.0,7.0,38,0.00,,,0.00,77.00,VWS V14.01,2014-03-16 21:25:00,
2014-03-16 17:30:00,31.0,8.4,30.20,WNW,287,0.0,8.0,38,0.00,,,0.00,72.00,VWS V14.01,2014-03-16 21:30:00,
2014-03-16 17:35:00,31.0,8.4,30.20,WNW,283,2.0,9.0,38,0.00,,,0.00,67.00,VWS V14.01,2014-03-16 21:35:00,
2014-03-16 17:45:00,30.5,7.9,30.20,WNW,294,4.0,4.0,38,0.00,,,0.00,65.00,VWS V14.01,2014-03-16 21:45:00,
2014-03-16 17:50:00,30.5,7.9,30.20,West,273,2.0,11.0,38,0.00,,,0.00,62.00,VWS V14.01,2014-03-16 21:50:00,
2014-03-16 17:55:00,30.5,7.3,30.20,West,275,2.0,11.0,37,0.00,,,0.00,53.00,VWS V14.01,2014-03-16 21:55:00,
2014-03-16 18:00:00,30.4,7.3,30.19,West,269,3.0,3.0,37,0.00,,,0.00,54.00,VWS V14.01,2014-03-16 22:00:00,
2014-03-16 18:06:00,30.2,7.7,30.19,WSW,254,0.0,7.0,38,0.00,,,0.00,54.00,VWS V14.01,2014-03-16 22:06:00,
2014-03-16 18:11:00,30.1,8.1,30.19,West,274,6.0,9.0,39,0.00,,,0.00,53.00,VWS V14.01,2014-03-16 22:11:00,
2014-03-16 18:15:00,29.9,8.0,30.19,WNW,296,0.0,1.0,39,0.00,,,0.00,44.00,VWS V14.01,2014-03-16 22:15:00,
2014-03-16 18:20:00,29.9,9.1,30.19,West,280,0.0,8.0,41,0.00,,,0.00,40.00,VWS V14.01,2014-03-16 22:20:00,
2014-03-16 18:25:00,29.8,8.4,30.19,West,281,5.0,8.0,40,0.00,,,0.00,30.00,VWS V14.01,2014-03-16 22:25:00,
2014-03-16 18:30:00,29.6,9.3,30.20,WSW,254,0.0,0.0,42,0.00,,,0.00,25.00,VWS V14.01,2014-03-16 22:30:00,
2014-03-16 18:35:00,29.8,9.0,30.20,WNW,291,3.0,3.0,41,0.00,,,0.00,21.00,VWS V14.01,2014-03-16 22:35:00,
2014-03-16 18:40:00,29.6,8.3,30.20,NE,48,0.0,6.0,40,0.00,,,0.00,14.00,VWS V14.01,2014-03-16 22:40:00,
2014-03-16 18:45:00,29.6,8.8,30.21,NE,47,0.0,6.0,41,0.00,,,0.00,11.00,VWS V14.01,2014-03-16 22:45:00,
2014-03-16 18:46:00,29.6,8.8,30.21,NE,47,0.0,0.0,41,0.00,,,0.00,11.00,VWS V14.01,2014-03-16 22:46:00,
2014-03-16 18:51:00,29.5,9.2,30.21,NE,47,0.0,6.0,42,0.00,,,0.00,7.00,VWS V14.01,2014-03-16 22:51:00,
2014-03-16 18:56:00,29.5,9.8,30.21,NE,47,0.0,6.0,43,0.00,,,0.00,0.00,VWS V14.01,2014-03-16 22:56:00,
2014-03-16 19:00:00,29.4,9.2,30.20,NE,39,0.0,6.0,42,0.00,,,0.00,0.00,VWS V14.01,2014-03-16 23:00:00,
2014-03-16 19:01:00,29.4,9.2,30.20,NE,39,0.0,1.0,42,0.00,,,0.00,0.00,VWS V14.01,2014-03-16 23:01:00,
2014-03-16 19:06:00,29.2,9.0,30.20,NE,45,0.0,5.0,42,0.00,,,0.00,0.00,VWS V14.01,2014-03-16 23:06:00,
2014-03-16 19:11:00,29.2,9.5,30.20,NE,45,0.0,5.0,43,0.00,,,0.00,0.00,VWS V14.01,2014-03-16 23:11:00,
2014-03-16 19:15:00,29.1,8.9,30.21,NE,45,0.0,5.0,42,0.00,,,0.00,0.00,VWS V14.01,2014-03-16 23:15:00,
2014-03-16 19:16:00,29.1,9.4,30.21,NE,46,0.0,1.0,43,0.00,,,0.00,0.00,VWS V14.01,2014-03-16 23:16:00,
2014-03-16 19:21:00,28.9,9.2,30.21,East,95,1.0,5.0,43,0.00,,,0.00,0.00,VWS V14.01,2014-03-16 23:21:00,
2014-03-16 19:26:00,28.9,8.7,30.21,NW,315,0.0,5.0,42,0.00,,,0.00,0.00,VWS V14.01,2014-03-16 23:26:00,
2014-03-16 19:30:00,28.8,8.6,30.20,NE,51,2.0,6.0,42,0.00,,,0.00,0.00,VWS V14.01,2014-03-16 23:30:00,
2014-03-16 19:31:00,28.8,8.1,30.20,ENE,65,5.0,5.0,41,0.00,,,0.00,0.00,VWS V14.01,2014-03-16 23:31:00,
2014-03-16 19:36:00,28.6,8.4,30.20,NE,38,5.0,11.0,42,0.00,,,0.00,0.00,VWS V14.01,2014-03-16 23:36:00,
2014-03-16 19:41:00,28.5,8.3,30.20,ENE,59,4.0,11.0,42,0.00,,,0.00,0.00,VWS V14.01,2014-03-16 23:41:00,
2014-03-16 19:45:00,28.5,7.8,30.20,NE,51,0.0,11.0,41,0.00,,,0.00,0.00,VWS V14.01,2014-03-16 23:45:00,
2014-03-16 19:47:00,28.5,7.3,30.20,NE,51,0.0,1.0,40,0.00,,,0.00,0.00,VWS V14.01,2014-03-16 23:47:00,
2014-03-16 19:52:00,28.3,7.1,30.20,NE,53,6.0,8.0,40,0.00,,,0.00,0.00,VWS V14.01,2014-03-16 23:52:00,
2014-03-16 19:57:00,28.3,6.5,30.20,NE,53,4.0,8.0,39,0.00,,,0.00,0.00,VWS V14.01,2014-03-16 23:57:00,
2014-03-16 20:00:00,28.3,7.1,30.20,NE,51,4.0,8.0,40,0.00,,,0.00,0.00,VWS V14.01,2014-03-17 00:00:00,
2014-03-16 20:02:00,28.2,7.0,30.20,NE,38,0.0,10.0,40,0.00,,,0.00,0.00,VWS V14.01,2014-03-17 00:02:00,
2014-03-16 20:07:00,28.2,5.9,30.20,ENE,59,8.0,11.0,38,0.00,,,0.00,0.00,VWS V14.01,2014-03-17 00:07:00,
2014-03-16 20:12:00,28.0,6.3,30.20,NNE,14,0.0,11.0,39,0.00,,,0.00,0.00,VWS V14.01,2014-03-17 00:12:00,
2014-03-16 20:15:00,28.0,6.8,30.21,NNE,32,1.0,11.0,40,0.00,,,0.00,0.00,VWS V14.01,2014-03-17 00:15:00,
2014-03-16 20:17:00,28.0,6.8,30.21,NNE,32,0.0,1.0,40,0.00,,,0.00,0.00,VWS V14.01,2014-03-17 00:17:00,
2014-03-16 20:22:00,27.9,6.2,30.21,ENE,57,0.0,8.0,39,0.00,,,0.00,0.00,VWS V14.01,2014-03-17 00:22:00,
2014-03-16 20:27:00,27.9,7.3,30.21,ENE,57,0.0,8.0,41,0.00,,,0.00,0.00,VWS V14.01,2014-03-17 00:27:00,
2014-03-16 20:30:00,27.9,7.3,30.21,ENE,57,0.0,8.0,41,0.00,,,0.00,0.00,VWS V14.01,2014-03-17 00:30:00,
2014-03-16 20:32:00,27.9,6.7,30.21,ENE,57,0.0,0.0,40,0.00,,,0.00,0.00,VWS V14.01,2014-03-17 00:32:00,
2014-03-16 20:37:00,27.9,6.7,30.21,NE,41,5.0,8.0,40,0.00,,,0.00,0.00,VWS V14.01,2014-03-17 00:37:00,
2014-03-16 20:42:00,27.9,7.8,30.21,ENE,59,0.0,8.0,42,0.00,,,0.00,0.00,VWS V14.01,2014-03-17 00:42:00,
2014-03-16 20:45:00,27.9,7.8,30.21,NE,40,0.0,8.0,42,0.00,,,0.00,0.00,VWS V14.01,2014-03-17 00:45:00,
2014-03-16 20:47:00,27.7,7.1,30.21,NNE,24,4.0,9.0,41,0.00,,,0.00,0.00,VWS V14.01,2014-03-17 00:47:00,
2014-03-16 20:53:00,27.7,7.1,30.21,ENE,69,1.0,9.0,41,0.00,,,0.00,0.00,VWS V14.01,2014-03-17 00:53:00,
2014-03-16 20:58:00,27.6,7.5,30.21,NE,51,0.0,9.0,42,0.00,,,0.00,0.00,VWS V14.01,2014-03-17 00:58:00,
2014-03-16 21:00:00,27.6,7.5,30.20,NE,54,5.0,9.0,42,0.00,,,0.00,0.00,VWS V14.01,2014-03-17 01:00:00,
2014-03-16 21:03:00,27.6,7.5,30.20,North,11,0.0,7.0,42,0.00,,,0.00,0.00,VWS V14.01,2014-03-17 01:03:00,
2014-03-16 21:08:00,27.6,7.5,30.20,NE,49,5.0,8.0,42,0.00,,,0.00,0.00,VWS V14.01,2014-03-17 01:08:00,
2014-03-16 21:14:00,27.6,7.5,30.20,NNE,16,9.0,13.0,42,0.00,,,0.00,0.00,VWS V14.01,2014-03-17 01:14:00,
2014-03-16 21:15:00,27.4,7.3,30.20,NNE,21,7.0,13.0,42,0.00,,,0.00,0.00,VWS V14.01,2014-03-17 01:15:00,
2014-03-16 21:19:00,27.4,7.9,30.20,NE,53,0.0,10.0,43,0.00,,,0.00,0.00,VWS V14.01,2014-03-17 01:19:00,
2014-03-16 21:24:00,27.4,6.8,30.20,North,9,9.0,10.0,41,0.00,,,0.00,0.00,VWS V14.01,2014-03-17 01:24:00,
2014-03-16 21:29:00,27.3,5.1,30.20,ENE,71,1.0,11.0,38,0.00,,,0.00,0.00,VWS V14.01,2014-03-17 01:29:00,
2014-03-16 21:30:00,27.3,5.6,30.19,NE,51,0.0,11.0,39,0.00,,,0.00,0.00,VWS V14.01,2014-03-17 01:30:00,
2014-03-16 21:34:00,27.1,4.9,30.19,ENE,72,4.0,11.0,38,0.00,,,0.00,0.00,VWS V14.01,2014-03-17 01:34:00,
2014-03-16 21:39:00,27.0,4.8,30.19,NE,42,4.0,11.0,38,0.00,,,0.00,0.00,VWS V14.01,2014-03-17 01:39:00,
2014-03-16 21:44:00,26.8,4.6,30.19,NE,53,5.0,11.0,38,0.00,,,0.00,0.00,VWS V14.01,2014-03-17 01:44:00,
2014-03-16 21:45:00,26.8,4.6,30.18,NE,54,0.0,11.0,38,0.00,,,0.00,0.00,VWS V14.01,2014-03-17 01:45:00,
2014-03-16 21:49:00,26.8,4.6,30.18,NE,56,0.0,6.0,38,0.00,,,0.00,0.00,VWS V14.01,2014-03-17 01:49:00,
2014-03-16 21:54:00,26.8,5.2,30.18,NE,45,0.0,7.0,39,0.00,,,0.00,0.00,VWS V14.01,2014-03-17 01:54:00,
2014-03-16 21:59:00,26.7,4.5,30.18,ENE,69,9.0,11.0,38,0.00,,,0.00,0.00,VWS V14.01,2014-03-17 01:59:00,
2014-03-16 22:00:00,26.7,4.5,30.17,ENE,69,0.0,11.0,38,0.00,,,0.00,0.00,VWS V14.01,2014-03-17 02:00:00,
2014-03-16 22:04:00,26.5,4.3,30.17,NE,49,0.0,12.0,38,0.00,,,0.00,0.00,VWS V14.01,2014-03-17 02:04:00,
2014-03-16 22:09:00,26.5,4.3,30.17,ENE,66,9.0,16.0,38,0.00,,,0.00,0.00,VWS V14.01,2014-03-17 02:09:00,
2014-03-16 22:15:00,26.2,4.6,30.17,ENE,62,6.0,16.0,39,0.00,,,0.00,0.00,VWS V14.01,2014-03-17 02:15:00,
2014-03-16 22:20:00,26.2,4.1,30.17,ENE,77,6.0,10.0,38,0.00,,,0.00,0.00,VWS V14.01,2014-03-17 02:20:00,
2014-03-16 22:25:00,26.2,4.1,30.17,NE,42,0.0,11.0,38,0.00,,,0.00,0.00,VWS V14.01,2014-03-17 02:25:00,
2014-03-16 22:30:00,26.1,4.5,30.17,ENE,58,5.0,11.0,39,0.00,,,0.00,0.00,VWS V14.01,2014-03-17 02:30:00,
2014-03-16 22:35:00,26.1,4.5,30.17,NE,35,5.0,10.0,39,0.00,,,0.00,0.00,VWS V14.01,2014-03-17 02:35:00,
2014-03-16 22:40:00,26.1,5.1,30.17,NE,36,4.0,10.0,40,0.00,,,0.00,0.00,VWS V14.01,2014-03-17 02:40:00,
2014-03-16 22:45:00,26.1,5.6,30.17,ENE,57,1.0,12.0,41,0.00,,,0.00,0.00,VWS V14.01,2014-03-17 02:45:00,
2014-03-16 22:50:00,25.9,5.4,30.17,ENE,57,0.0,5.0,41,0.00,,,0.00,0.00,VWS V14.01,2014-03-17 02:50:00,
2014-03-16 22:55:00,25.9,6.0,30.17,NNE,21,0.0,10.0,42,0.00,,,0.00,0.00,VWS V14.01,2014-03-17 02:55:00,
2014-03-16 23:00:00,25.9,6.0,30.16,North,11,3.0,10.0,42,0.00,,,0.00,0.00,VWS V14.01,2014-03-17 03:00:00,
2014-03-16 23:05:00,25.8,5.9,30.16,NE,34,5.0,10.0,42,0.00,,,0.00,0.00,VWS V14.01,2014-03-17 03:05:00,
2014-03-16 23:10:00,25.7,5.8,30.16,NE,44,4.0,12.0,42,0.00,,,0.00,0.00,VWS V14.01,2014-03-17 03:10:00,
2014-03-16 23:15:00,25.7,6.3,30.16,ENE,66,1.0,12.0,43,0.00,,,0.00,0.00,VWS V14.01,2014-03-17 03:15:00,
2014-03-16 23:20:00,25.7,6.8,30.16,ENE,71,0.0,7.0,44,0.00,,,0.00,0.00,VWS V14.01,2014-03-17 03:20:00,
2014-03-16 23:25:00,25.7,6.3,30.16,NE,35,4.0,10.0,43,0.00,,,0.00,0.00,VWS V14.01,2014-03-17 03:25:00,
2014-03-16 23:30:00,25.7,6.3,30.17,ENE,75,6.0,10.0,43,0.00,,,0.00,0.00,VWS V14.01,2014-03-17 03:30:00,
2014-03-16 23:35:00,25.7,5.8,30.17,NE,53,0.0,8.0,42,0.00,,,0.00,0.00,VWS V14.01,2014-03-17 03:35:00,
2014-03-16 23:45:00,25.5,5.6,30.16,NE,45,1.0,9.0,42,0.00,,,0.00,0.00,VWS V14.01,2014-03-17 03:45:00,